Main page
METAR-TAF:

METAR-TAF

Airports :

Esenboğa International Airport

Ankara Esenboğa, Turkey

latitude: 40-07N, longitude: 032-59E, elevation: 953 m

Current weather observation

The report was made 25 minutes ago, at 06:20 UTC
Wind 12 kt from the North/Northeast
Temperature 25°C
Humidity 32%
Pressure 1013 hPa
Visibility 10 km or more
no clouds below 1500 m and no cumulonimbus

METAR: LTAC 180620Z 02012KT CAVOK 25/07 Q1013 NOSIG RMK RWY21L 03012KT RWY03L 02011KT RWY21R 03013KT

Time: 09:45 (06:45 UTC)

Forecast

The report was made 2 hours and 5 minutes ago, at 04:40 UTC
Forecast valid from 18 at 06 UTC to 19 at 06 UTC
Wind 9 kt from the North/Northeast
Visibility 10 km or more
no clouds below 1500 m and no cumulonimbus
Becoming
from 18 at 06 UTC to 18 at 08 UTC
Scattered clouds at a height of 4000 ft
Becoming
from 18 at 18 UTC to 18 at 20 UTC
Visibility 10 km or more
no clouds below 1500 m and no cumulonimbus

TAF: LTAC 180440Z 1806/1906 03009KT CAVOK BECMG 1806/1808 SCT040 BECMG 1818/1820 CAVOK

Weather observations and forecasts of more than 4000 airports (METAR and TAF reports).

The available stations are represented by yellow and red dots on the map.

Hover mouse over dot to see the name of the station.

Then click to see weather observations and forecasts.

To change the map : click on the green buttons with a black cross to zoom in, on the green button with a dash to zoom out, or on the green arrows for adjacent maps.


METAR-TAF: